createdAt,value
2024-02-02T00:00:17.792Z,78.11
2024-02-02T00:03:05.937Z,79.49
2024-02-02T00:05:33.968Z,79.24
2024-02-02T00:08:02.584Z,79.70
2024-02-02T00:10:31.209Z,80.66
2024-02-02T00:12:59.278Z,80.64
2024-02-02T00:15:27.450Z,80.66
2024-02-02T00:17:55.690Z,80.82
2024-02-02T00:20:23.840Z,80.49
2024-02-02T00:22:53.998Z,80.53
2024-02-02T00:25:23.681Z,80.82
2024-02-02T00:27:51.593Z,80.15
2024-02-02T00:30:20.278Z,80.07
2024-02-02T00:32:48.446Z,80.16
2024-02-02T00:35:16.513Z,79.77
2024-02-02T00:37:45.514Z,80.10
2024-02-02T00:40:13.786Z,80.46
2024-02-02T00:42:43.664Z,79.88
2024-02-02T00:45:12.637Z,80.02
2024-02-02T00:47:40.731Z,79.98
2024-02-02T00:50:09.725Z,79.82
2024-02-02T00:52:37.790Z,80.04
2024-02-02T00:55:05.985Z,79.88
2024-02-02T00:57:34.127Z,80.04
2024-02-02T01:00:02.088Z,81.01
2024-02-02T01:02:31.243Z,80.52
2024-02-02T01:04:59.163Z,80.29
2024-02-02T01:07:27.094Z,80.16
2024-02-02T01:09:55.293Z,80.49
2024-02-02T01:12:23.516Z,80.63
2024-02-02T01:14:52.438Z,80.84
2024-02-02T01:17:20.561Z,80.83
2024-02-02T01:19:48.647Z,81.11
2024-02-02T01:22:16.765Z,81.04
2024-02-02T01:24:44.848Z,80.48
2024-02-02T01:27:12.861Z,80.26
2024-02-02T01:29:40.853Z,80.47
2024-02-02T01:32:08.871Z,80.51
2024-02-02T01:34:36.905Z,80.01
2024-02-02T01:37:05.893Z,80.28
2024-02-02T01:39:33.929Z,80.81
2024-02-02T01:42:01.912Z,80.23
2024-02-02T01:44:29.974Z,80.05
2024-02-02T01:46:58.060Z,80.06
2024-02-02T01:49:26.184Z,80.11
2024-02-02T01:51:54.206Z,80.14
2024-02-02T01:54:22.535Z,79.88
2024-02-02T01:56:50.819Z,80.15
2024-02-02T01:59:18.875Z,80.78
2024-02-02T02:01:47.114Z,80.46
2024-02-02T02:04:15.185Z,80.06
2024-02-02T02:06:43.539Z,80.23
2024-02-02T02:09:11.859Z,80.84
2024-02-02T02:11:40.201Z,80.63
2024-02-02T02:14:08.661Z,80.65
2024-02-02T02:16:36.608Z,80.99
2024-02-02T02:19:05.061Z,81.09
2024-02-02T02:21:33.286Z,81.11
2024-02-02T02:24:01.320Z,81.42
2024-02-02T02:26:30.191Z,81.62
2024-02-02T02:28:58.184Z,82.08
2024-02-02T02:31:26.567Z,82.23
2024-02-02T02:33:54.698Z,82.07
2024-02-02T02:36:22.907Z,82.26
2024-02-02T02:38:51.987Z,82.29
2024-02-02T02:41:20.047Z,82.37
2024-02-02T02:43:47.988Z,82.26
2024-02-02T02:46:15.981Z,82.54
2024-02-02T02:48:44.049Z,82.92
2024-02-02T02:51:12.093Z,82.99
2024-02-02T02:53:40.074Z,83.56
2024-02-02T02:56:09.366Z,82.94
2024-02-02T02:58:37.407Z,83.11
2024-02-02T03:01:05.532Z,82.92
2024-02-02T03:03:33.879Z,83.16
2024-02-02T03:06:02.059Z,83.61
2024-02-02T03:08:30.127Z,83.70
2024-02-02T03:10:59.230Z,83.49
2024-02-02T03:13:27.548Z,83.51
2024-02-02T03:15:55.659Z,83.55
2024-02-02T03:18:23.803Z,84.23
2024-02-02T03:20:51.900Z,84.23
2024-02-02T03:23:19.964Z,84.35
2024-02-02T03:25:47.906Z,84.15
2024-02-02T03:28:16.139Z,84.83
2024-02-02T03:30:44.249Z,84.91
2024-02-02T03:33:12.261Z,85.38
2024-02-02T03:35:40.432Z,85.33
2024-02-02T03:38:08.414Z,85.38
2024-02-02T03:40:36.448Z,85.42
2024-02-02T03:43:05.049Z,85.48
2024-02-02T03:45:33.472Z,85.18
2024-02-02T03:48:01.619Z,85.40
2024-02-02T03:50:29.789Z,85.66
2024-02-02T03:52:57.758Z,85.61
2024-02-02T03:55:26.081Z,85.65
2024-02-02T03:57:54.079Z,86.44
2024-02-02T04:00:22.240Z,86.11
2024-02-02T04:02:51.603Z,85.82
2024-02-02T04:05:20.203Z,85.29
2024-02-02T04:07:48.206Z,85.60
2024-02-02T04:10:16.518Z,85.89
2024-02-02T04:12:44.798Z,85.64
2024-02-02T04:15:12.926Z,85.86
2024-02-02T04:17:40.868Z,86.09
2024-02-02T04:20:09.468Z,85.96
2024-02-02T04:22:37.473Z,85.93
2024-02-02T04:25:06.138Z,86.37
2024-02-02T04:27:35.550Z,86.51
2024-02-02T04:30:04.970Z,87.04
2024-02-02T04:32:33.715Z,87.27
2024-02-02T04:35:01.795Z,87.43
2024-02-02T04:37:29.812Z,87.40
2024-02-02T04:39:57.734Z,87.47
2024-02-02T04:42:27.166Z,87.58
2024-02-02T04:44:55.337Z,87.80
2024-02-02T04:47:23.703Z,87.87
2024-02-02T04:49:51.668Z,88.06
2024-02-02T04:52:19.703Z,87.75
2024-02-02T04:54:48.840Z,87.85
2024-02-02T04:57:16.885Z,87.91
2024-02-02T04:59:44.870Z,87.50
2024-02-02T05:02:12.926Z,88.01
2024-02-02T05:04:42.161Z,87.32
2024-02-02T05:07:10.571Z,87.61
2024-02-02T05:09:38.506Z,88.19
2024-02-02T05:12:07.605Z,88.37
2024-02-02T05:14:35.815Z,88.37
2024-02-02T05:17:03.942Z,87.93
2024-02-02T05:19:32.360Z,88.66
2024-02-02T05:22:00.402Z,88.88
2024-02-02T05:24:42.534Z,88.92
2024-02-02T05:27:14.288Z,88.99
2024-02-02T05:29:49.477Z,89.13
2024-02-02T05:32:17.552Z,88.96
2024-02-02T05:34:45.576Z,88.64
2024-02-02T05:37:13.709Z,88.76
2024-02-02T05:39:41.685Z,89.34
2024-02-02T05:42:09.720Z,89.03
2024-02-02T05:44:38.324Z,88.97
2024-02-02T05:47:06.343Z,89.22
2024-02-02T05:49:34.299Z,88.97
2024-02-02T05:52:02.614Z,88.72
2024-02-02T05:54:31.463Z,88.92
2024-02-02T05:56:59.520Z,88.56
2024-02-02T05:59:27.451Z,88.41
2024-02-02T06:01:55.343Z,88.58
2024-02-02T06:04:23.333Z,88.56
2024-02-02T06:06:51.458Z,89.03
2024-02-02T06:09:19.639Z,88.79
2024-02-02T06:11:47.604Z,88.72
2024-02-02T06:14:15.506Z,88.80
2024-02-02T06:16:43.525Z,88.83
2024-02-02T06:19:11.534Z,88.54
2024-02-02T06:21:39.583Z,88.69
2024-02-02T06:24:09.157Z,88.81
2024-02-02T06:26:38.132Z,89.05
2024-02-02T06:29:06.310Z,88.90
2024-02-02T06:31:34.274Z,88.87
2024-02-02T06:34:02.344Z,89.08
2024-02-02T06:36:30.417Z,89.26
2024-02-02T06:38:58.459Z,89.23
2024-02-02T06:41:26.501Z,89.12
2024-02-02T06:43:54.574Z,88.94
2024-02-02T06:46:22.607Z,88.96
2024-02-02T06:48:50.771Z,89.52
2024-02-02T06:51:18.947Z,89.38
2024-02-02T06:53:48.603Z,89.36
2024-02-02T06:56:36.951Z,88.58
2024-02-02T06:59:06.741Z,88.94
2024-02-02T07:01:35.666Z,88.58
2024-02-02T07:04:08.071Z,88.68
2024-02-02T07:06:36.485Z,88.93
2024-02-02T07:09:30.400Z,89.63
2024-02-02T07:12:11.895Z,90.27
2024-02-02T07:14:51.211Z,89.82
2024-02-02T07:17:36.127Z,89.23
2024-02-02T07:20:13.615Z,89.17
2024-02-02T07:22:43.577Z,89.73
2024-02-02T07:25:17.529Z,89.30
2024-02-02T07:27:50.867Z,89.33
2024-02-02T07:30:49.033Z,89.27
2024-02-02T07:33:26.261Z,89.22
2024-02-02T07:35:58.734Z,88.84
2024-02-02T07:38:53.020Z,89.01
2024-02-02T07:41:26.842Z,91.87
2024-02-02T07:43:57.558Z,88.54
2024-02-02T07:46:26.343Z,88.67
2024-02-02T07:48:55.584Z,88.51
2024-02-02T07:51:25.284Z,88.10
2024-02-02T07:53:53.416Z,87.85
2024-02-02T07:56:23.631Z,88.83
2024-02-02T07:58:52.051Z,88.17
2024-02-02T08:01:20.199Z,88.10
2024-02-02T08:03:48.256Z,87.99
2024-02-02T08:06:16.494Z,87.96
2024-02-02T08:08:44.558Z,88.24
2024-02-02T08:11:12.562Z,89.13
2024-02-02T08:13:40.650Z,88.41
2024-02-02T08:16:09.787Z,88.29
2024-02-02T08:18:39.547Z,87.83
2024-02-02T08:21:08.282Z,87.79
2024-02-02T08:23:36.774Z,87.49
2024-02-02T08:26:05.114Z,87.24
2024-02-02T08:28:41.875Z,87.63
2024-02-02T08:31:17.313Z,87.29
2024-02-02T08:33:45.392Z,87.26
2024-02-02T08:36:13.486Z,87.30
2024-02-02T08:38:41.955Z,86.94
2024-02-02T08:41:10.397Z,87.44
2024-02-02T08:43:40.376Z,87.43
2024-02-02T08:46:16.129Z,87.47
2024-02-02T08:48:48.329Z,87.40
2024-02-02T08:51:23.983Z,87.32
2024-02-02T08:54:21.153Z,87.52
2024-02-02T08:57:19.745Z,87.26
2024-02-02T08:59:53.701Z,87.38
2024-02-02T09:03:17.761Z,86.98
2024-02-02T09:05:51.966Z,86.48
2024-02-02T09:08:41.885Z,86.24
2024-02-02T09:11:11.606Z,86.94
2024-02-02T09:13:45.540Z,86.23
2024-02-02T09:16:25.872Z,85.38
2024-02-02T09:18:57.570Z,84.32
2024-02-02T09:21:34.235Z,84.55
2024-02-02T09:24:03.462Z,84.38
2024-02-02T09:26:40.763Z,84.02
2024-02-02T09:29:10.947Z,84.35
2024-02-02T09:31:39.666Z,83.95
2024-02-02T09:34:11.637Z,83.63
2024-02-02T09:36:40.960Z,83.26
2024-02-02T09:39:50.918Z,83.02
2024-02-02T09:42:35.293Z,83.40
2024-02-02T09:45:39.741Z,83.25
2024-02-02T09:48:46.332Z,83.17
2024-02-02T09:51:42.926Z,83.13
2024-02-02T09:55:13.768Z,82.44
2024-02-02T09:57:57.674Z,81.92
2024-02-02T10:00:47.180Z,81.57
2024-02-02T10:03:35.267Z,82.34
2024-02-02T10:06:17.090Z,81.59
2024-02-02T10:09:03.011Z,81.36
2024-02-02T10:12:01.633Z,81.22
2024-02-02T10:14:58.196Z,80.99
2024-02-02T10:17:50.456Z,81.57
2024-02-02T10:20:39.153Z,81.17
2024-02-02T10:23:31.945Z,80.72
2024-02-02T10:26:51.120Z,79.99
2024-02-02T10:30:05.968Z,79.62
2024-02-02T10:33:07.643Z,80.10
2024-02-02T10:35:58.455Z,80.25
2024-02-02T10:38:46.703Z,80.30
2024-02-02T10:41:56.022Z,80.56
2024-02-02T10:45:02.103Z,80.69
2024-02-02T10:48:03.285Z,80.11
2024-02-02T10:51:11.297Z,79.92
2024-02-02T10:54:12.115Z,79.55
2024-02-02T10:57:32.719Z,78.91
2024-02-02T11:00:14.391Z,79.97
2024-02-02T11:03:38.418Z,80.10
2024-02-02T11:06:21.309Z,79.57
2024-02-02T11:08:57.740Z,79.27
2024-02-02T11:11:31.374Z,79.58
2024-02-02T11:14:16.977Z,79.28
2024-02-02T11:17:07.298Z,79.35
2024-02-02T11:20:05.229Z,79.05
2024-02-02T11:22:55.522Z,79.08
2024-02-02T11:25:51.727Z,79.91
2024-02-02T11:28:54.343Z,78.70
2024-02-02T11:31:44.441Z,79.12
2024-02-02T11:34:48.383Z,78.32
2024-02-02T11:37:41.229Z,77.66
2024-02-02T11:40:11.554Z,77.57
2024-02-02T11:42:41.550Z,77.77
2024-02-02T11:45:18.226Z,77.47
2024-02-02T11:48:02.988Z,77.47
2024-02-02T11:50:45.038Z,77.30
2024-02-02T11:53:39.862Z,77.41
2024-02-02T11:56:18.100Z,78.23
2024-02-02T11:58:59.111Z,78.97
2024-02-02T12:01:52.084Z,78.35
2024-02-02T12:04:45.540Z,78.53
2024-02-02T12:07:58.085Z,78.97
2024-02-02T12:10:29.979Z,78.70
2024-02-02T12:13:05.840Z,78.30
2024-02-02T12:15:34.010Z,78.09
2024-02-02T12:18:04.214Z,78.83
2024-02-02T12:20:32.960Z,79.73
2024-02-02T12:23:01.137Z,79.00
2024-02-02T12:25:29.379Z,79.25
2024-02-02T12:27:57.830Z,79.22
2024-02-02T12:30:25.909Z,79.29
2024-02-02T12:32:58.666Z,79.43
2024-02-02T12:35:27.572Z,80.23
2024-02-02T12:37:56.764Z,81.14
2024-02-02T12:40:28.721Z,81.15
2024-02-02T12:43:01.061Z,81.33
2024-02-02T12:45:29.067Z,81.80
2024-02-02T12:47:58.935Z,81.53
2024-02-02T12:50:27.109Z,80.82
2024-02-02T12:52:55.668Z,81.03
2024-02-02T12:55:24.055Z,81.44
2024-02-02T12:57:53.237Z,82.36
2024-02-02T13:00:25.249Z,82.45
2024-02-02T13:02:55.941Z,82.98
2024-02-02T13:05:27.694Z,83.19
2024-02-02T13:07:57.572Z,83.64
2024-02-02T13:10:45.204Z,83.99
2024-02-02T13:13:20.403Z,84.67
2024-02-02T13:15:49.116Z,85.56
2024-02-02T13:18:20.916Z,85.82
2024-02-02T13:20:53.351Z,86.03
2024-02-02T13:23:30.637Z,86.14
2024-02-02T13:26:02.502Z,86.70
2024-02-02T13:28:39.700Z,87.78
2024-02-02T13:31:16.492Z,88.13
2024-02-02T13:33:58.917Z,88.29
2024-02-02T13:36:31.005Z,89.12
2024-02-02T13:39:00.566Z,89.23
2024-02-02T13:41:35.265Z,89.86
2024-02-02T13:44:08.831Z,90.58
2024-02-02T13:46:46.995Z,90.97
2024-02-02T13:49:23.878Z,91.72
2024-02-02T13:51:53.173Z,92.18
2024-02-02T13:54:22.929Z,92.77
2024-02-02T13:56:52.374Z,93.17
2024-02-02T13:59:21.019Z,93.97
2024-02-02T14:01:49.701Z,94.71
2024-02-02T14:04:26.347Z,94.69
2024-02-02T14:06:54.646Z,94.31
2024-02-02T14:09:23.347Z,94.71
2024-02-02T14:11:59.293Z,94.69
2024-02-02T14:14:29.197Z,95.01
2024-02-02T14:17:05.292Z,95.35
2024-02-02T14:19:34.411Z,95.62
2024-02-02T14:22:10.106Z,95.08
2024-02-02T14:24:48.715Z,95.02
2024-02-02T14:27:16.905Z,95.05
2024-02-02T14:29:45.838Z,95.14
2024-02-02T14:32:14.011Z,95.07
2024-02-02T14:34:42.307Z,95.43
2024-02-02T14:37:12.313Z,95.09
2024-02-02T14:39:41.055Z,95.36
2024-02-02T14:42:09.161Z,95.47
2024-02-02T14:44:37.197Z,95.47
2024-02-02T14:47:07.346Z,94.91
2024-02-02T14:49:35.663Z,97.04
2024-02-02T14:52:04.113Z,98.48
2024-02-02T14:54:32.097Z,97.70
2024-02-02T14:57:00.609Z,96.58
2024-02-02T14:59:40.609Z,95.23
2024-02-02T15:02:09.630Z,93.60
2024-02-02T15:04:37.890Z,92.53
2024-02-02T15:07:06.211Z,93.44
2024-02-02T15:09:35.008Z,93.44
2024-02-02T15:12:05.616Z,93.82
2024-02-02T15:14:36.561Z,94.06
2024-02-02T15:17:05.209Z,94.02
2024-02-02T15:19:33.646Z,94.01
2024-02-02T15:22:01.733Z,94.07
2024-02-02T15:24:31.435Z,94.27
2024-02-02T15:26:59.971Z,94.31
2024-02-02T15:29:28.178Z,94.64
2024-02-02T15:31:56.209Z,94.83
2024-02-02T15:34:24.524Z,94.79
2024-02-02T15:36:52.714Z,94.99
2024-02-02T15:39:27.583Z,95.63
2024-02-02T15:42:03.037Z,96.09
2024-02-02T15:44:31.346Z,96.06
2024-02-02T15:47:00.753Z,96.37
2024-02-02T15:49:28.876Z,96.65
2024-02-02T15:51:57.024Z,96.88
2024-02-02T15:54:24.991Z,96.49
2024-02-02T15:56:52.947Z,96.57
2024-02-02T15:59:20.897Z,97.05
2024-02-02T16:01:48.989Z,97.38
2024-02-02T16:04:17.263Z,97.19
2024-02-02T16:06:45.812Z,97.41
2024-02-02T16:09:13.895Z,97.71
2024-02-02T16:11:41.912Z,97.47
2024-02-02T16:14:09.852Z,97.23
2024-02-02T16:16:37.815Z,96.68
2024-02-02T16:19:06.091Z,96.32
2024-02-02T16:21:34.146Z,96.01
2024-02-02T16:24:02.481Z,95.72
2024-02-02T16:26:30.454Z,95.46
2024-02-02T16:28:58.479Z,95.31
2024-02-02T16:31:26.516Z,95.20
2024-02-02T16:33:55.161Z,94.63
2024-02-02T16:36:23.358Z,94.21
2024-02-02T16:38:51.671Z,93.70
2024-02-02T16:41:19.608Z,93.34
2024-02-02T16:43:47.847Z,93.09
2024-02-02T16:46:15.795Z,92.09
2024-02-02T16:48:43.969Z,92.11
2024-02-02T16:51:16.493Z,91.69
2024-02-02T16:53:44.538Z,91.76
2024-02-02T16:56:17.258Z,91.82
2024-02-02T16:58:46.332Z,91.90
2024-02-02T17:01:14.378Z,91.69
2024-02-02T17:03:43.062Z,91.97
2024-02-02T17:06:11.990Z,92.03
2024-02-02T17:08:40.714Z,92.33
2024-02-02T17:11:09.393Z,92.56
2024-02-02T17:13:37.686Z,92.68
2024-02-02T17:16:06.777Z,92.13
2024-02-02T17:18:36.629Z,91.95
2024-02-02T17:21:05.577Z,92.04
2024-02-02T17:23:34.543Z,91.88
2024-02-02T17:26:02.961Z,92.35
2024-02-02T17:28:31.274Z,92.32
2024-02-02T17:30:59.270Z,92.35
2024-02-02T17:33:27.276Z,93.11
2024-02-02T17:35:55.312Z,93.40
2024-02-02T17:38:23.228Z,93.05
2024-02-02T17:40:51.143Z,93.54
2024-02-02T17:43:19.109Z,92.94
2024-02-02T17:45:47.112Z,92.53
2024-02-02T17:48:15.400Z,92.42
2024-02-02T17:50:44.819Z,91.83
2024-02-02T17:53:13.745Z,91.31
2024-02-02T17:55:41.734Z,91.11
2024-02-02T17:58:09.727Z,90.68
2024-02-02T18:00:37.920Z,90.40
2024-02-02T18:03:07.505Z,90.15
2024-02-02T18:05:35.779Z,89.49
2024-02-02T18:08:04.328Z,89.56
2024-02-02T18:10:32.508Z,89.70
2024-02-02T18:13:01.879Z,88.61
2024-02-02T18:15:29.951Z,87.90
2024-02-02T18:17:58.076Z,87.77
2024-02-02T18:20:26.126Z,87.42
2024-02-02T18:22:54.111Z,86.90
2024-02-02T18:25:24.009Z,86.67
2024-02-02T18:27:53.422Z,86.25
2024-02-02T18:30:22.837Z,86.11
2024-02-02T18:32:50.798Z,85.58
2024-02-02T18:35:18.762Z,85.87
2024-02-02T18:37:49.656Z,86.26
2024-02-02T18:40:19.448Z,85.88
2024-02-02T18:42:47.624Z,85.17
2024-02-02T18:45:15.664Z,84.99
2024-02-02T18:47:43.722Z,84.82
2024-02-02T18:50:12.238Z,84.79
2024-02-02T18:52:40.726Z,84.62
2024-02-02T18:55:09.243Z,84.79
2024-02-02T18:57:37.281Z,86.10
2024-02-02T19:00:05.992Z,85.92
2024-02-02T19:02:34.096Z,85.92
2024-02-02T19:05:02.191Z,85.69
2024-02-02T19:07:33.665Z,85.43
2024-02-02T19:10:01.998Z,85.22
2024-02-02T19:12:30.289Z,86.67
2024-02-02T19:14:59.898Z,86.79
2024-02-02T19:17:28.302Z,86.85
2024-02-02T19:19:56.517Z,86.91
2024-02-02T19:22:24.579Z,87.49
2024-02-02T19:24:53.459Z,87.29
2024-02-02T19:27:21.490Z,86.67
2024-02-02T19:29:49.456Z,86.74
2024-02-02T19:32:17.423Z,87.84
2024-02-02T19:34:45.523Z,87.54
2024-02-02T19:37:13.538Z,87.44
2024-02-02T19:39:41.550Z,87.50
2024-02-02T19:42:09.631Z,88.68
2024-02-02T19:44:37.587Z,88.76
2024-02-02T19:47:06.310Z,88.94
2024-02-02T19:49:34.385Z,88.62
2024-02-02T19:52:02.622Z,88.41
2024-02-02T19:54:32.098Z,88.61
2024-02-02T19:57:00.070Z,88.87
2024-02-02T19:59:28.071Z,89.04
2024-02-02T20:01:56.254Z,89.42
2024-02-02T20:04:26.241Z,89.63
2024-02-02T20:06:54.500Z,89.58
2024-02-02T20:09:22.928Z,89.59
2024-02-02T20:11:50.955Z,89.86
2024-02-02T20:14:18.975Z,89.77
2024-02-02T20:16:47.202Z,89.92
2024-02-02T20:19:15.783Z,90.99
2024-02-02T20:21:43.794Z,91.37
2024-02-02T20:24:11.845Z,91.00
2024-02-02T20:26:39.840Z,91.43
2024-02-02T20:29:07.824Z,92.06
2024-02-02T20:31:35.778Z,92.41
2024-02-02T20:34:03.887Z,92.47
2024-02-02T20:36:33.152Z,93.36
2024-02-02T20:39:01.180Z,94.04
2024-02-02T20:41:29.181Z,95.37
2024-02-02T20:43:58.990Z,96.06
2024-02-02T20:46:27.254Z,96.89
2024-02-02T20:48:55.325Z,98.05
2024-02-02T20:51:23.617Z,98.38
2024-02-02T20:53:52.221Z,99.30
2024-02-02T20:56:20.304Z,100.00
2024-02-02T20:58:48.289Z,100.00
2024-02-02T21:01:16.974Z,100.00
2024-02-02T21:03:45.190Z,100.00
2024-02-02T21:06:13.470Z,100.00
2024-02-02T21:08:44.811Z,100.00
2024-02-02T21:11:12.836Z,100.00
2024-02-02T21:13:40.904Z,100.00
2024-02-02T21:16:08.977Z,100.00
2024-02-02T21:18:37.125Z,100.00
2024-02-02T21:21:07.189Z,100.00
2024-02-02T21:23:35.511Z,100.00
2024-02-02T21:26:03.765Z,100.00
2024-02-02T21:28:31.818Z,100.00
2024-02-02T21:31:00.314Z,100.00
2024-02-02T21:33:29.163Z,100.00
2024-02-02T21:36:03.881Z,100.00
2024-02-02T21:38:32.218Z,100.00
2024-02-02T21:41:01.595Z,100.00
2024-02-02T21:43:29.565Z,100.00
2024-02-02T21:45:57.542Z,100.00
2024-02-02T21:48:25.773Z,100.00
2024-02-02T21:50:53.939Z,100.00
2024-02-02T21:53:22.029Z,100.00
2024-02-02T21:55:50.051Z,100.00
2024-02-02T21:58:18.138Z,100.00
2024-02-02T22:00:47.494Z,100.00
2024-02-02T22:03:15.866Z,100.00
2024-02-02T22:05:44.072Z,100.00
2024-02-02T22:08:12.361Z,100.00
2024-02-02T22:10:40.470Z,100.00
2024-02-02T22:13:10.406Z,100.00
2024-02-02T22:15:38.907Z,100.00
2024-02-02T22:18:07.734Z,100.00
2024-02-02T22:20:35.826Z,100.00
2024-02-02T22:23:04.140Z,100.00
2024-02-02T22:25:32.784Z,100.00
2024-02-02T22:28:00.902Z,100.00
2024-02-02T22:30:29.000Z,100.00
2024-02-02T22:32:58.192Z,100.00
2024-02-02T22:35:26.373Z,100.00
2024-02-02T22:37:54.526Z,100.00
2024-02-02T22:40:22.597Z,100.00
2024-02-02T22:42:50.819Z,100.00
2024-02-02T22:45:18.990Z,100.00
2024-02-02T22:47:47.121Z,100.00
2024-02-02T22:50:15.391Z,100.00
2024-02-02T22:52:44.703Z,100.00
2024-02-02T22:55:12.748Z,100.00
2024-02-02T22:57:40.862Z,100.00
2024-02-02T23:00:11.212Z,100.00
2024-02-02T23:02:39.343Z,100.00
2024-02-02T23:05:09.246Z,100.00
2024-02-02T23:07:37.288Z,100.00
2024-02-02T23:10:05.392Z,100.00
2024-02-02T23:12:33.698Z,100.00
2024-02-02T23:15:01.972Z,100.00
2024-02-02T23:17:32.527Z,100.00
2024-02-02T23:20:00.837Z,100.00
2024-02-02T23:22:29.014Z,100.00
2024-02-02T23:24:57.021Z,100.00
2024-02-02T23:27:30.122Z,100.00
2024-02-02T23:29:58.175Z,100.00
2024-02-02T23:32:26.320Z,100.00
2024-02-02T23:34:57.047Z,100.00
2024-02-02T23:37:25.065Z,100.00
2024-02-02T23:39:55.197Z,100.00
2024-02-02T23:42:23.253Z,100.00
2024-02-02T23:44:51.346Z,100.00
2024-02-02T23:47:19.273Z,100.00
2024-02-02T23:49:47.268Z,100.00
2024-02-02T23:52:15.262Z,100.00
2024-02-02T23:54:43.213Z,100.00
2024-02-02T23:57:11.202Z,100.00
2024-02-02T23:59:39.192Z,100.00
